sensor_id;sensor_type;location;lat;lon;timestamp;pressure;altitude;pressure_sealevel;temperature;humidity
84746;BME280;74975;51.922;6.480;2024-02-26T00:02:16;99894.13;;;3.88;88.66
84746;BME280;74975;51.922;6.480;2024-02-26T00:04:51;99889.28;;;3.85;89.97
84746;BME280;74975;51.922;6.480;2024-02-26T00:07:26;99889.00;;;3.80;89.96
84746;BME280;74975;51.922;6.480;2024-02-26T00:10:04;99891.53;;;3.73;90.75
84746;BME280;74975;51.922;6.480;2024-02-26T00:12:36;99891.34;;;3.75;89.78
84746;BME280;74975;51.922;6.480;2024-02-26T00:15:07;99887.97;;;3.74;90.09
84746;BME280;74975;51.922;6.480;2024-02-26T00:17:36;99885.78;;;3.78;89.68
84746;BME280;74975;51.922;6.480;2024-02-26T00:20:02;99893.06;;;3.82;89.18
84746;BME280;74975;51.922;6.480;2024-02-26T00:22:32;99888.94;;;3.88;89.05
84746;BME280;74975;51.922;6.480;2024-02-26T00:25:02;99893.31;;;4.02;88.91
84746;BME280;74975;51.922;6.480;2024-02-26T00:27:32;99894.19;;;4.09;88.42
84746;BME280;74975;51.922;6.480;2024-02-26T00:30:02;99897.34;;;4.19;87.84
84746;BME280;74975;51.922;6.480;2024-02-26T00:32:27;99891.47;;;4.32;87.65
84746;BME280;74975;51.922;6.480;2024-02-26T00:34:59;99893.38;;;4.38;87.40
84746;BME280;74975;51.922;6.480;2024-02-26T00:37:29;99885.63;;;4.44;86.84
84746;BME280;74975;51.922;6.480;2024-02-26T00:39:55;99886.97;;;4.40;87.35
84746;BME280;74975;51.922;6.480;2024-02-26T00:42:20;99884.47;;;4.32;88.55
84746;BME280;74975;51.922;6.480;2024-02-26T00:44:53;99890.66;;;4.31;88.11
84746;BME280;74975;51.922;6.480;2024-02-26T00:47:23;99886.72;;;4.35;89.21
84746;BME280;74975;51.922;6.480;2024-02-26T00:49:52;99886.34;;;4.38;88.27
84746;BME280;74975;51.922;6.480;2024-02-26T00:52:24;99879.59;;;4.44;88.83
84746;BME280;74975;51.922;6.480;2024-02-26T00:54:58;99878.06;;;4.49;88.35
84746;BME280;74975;51.922;6.480;2024-02-26T00:57:30;99876.88;;;4.52;88.66
84746;BME280;74975;51.922;6.480;2024-02-26T00:59:58;99871.72;;;4.58;88.09
84746;BME280;74975;51.922;6.480;2024-02-26T01:02:37;99871.72;;;4.58;87.82
84746;BME280;74975;51.922;6.480;2024-02-26T01:05:09;99880.16;;;4.60;87.89
84746;BME280;74975;51.922;6.480;2024-02-26T01:07:35;99877.00;;;4.65;87.13
84746;BME280;74975;51.922;6.480;2024-02-26T01:10:07;99882.03;;;4.66;86.89
84746;BME280;74975;51.922;6.480;2024-02-26T01:12:33;99886.69;;;4.71;87.28
84746;BME280;74975;51.922;6.480;2024-02-26T01:15:02;99889.88;;;4.66;86.89
84746;BME280;74975;51.922;6.480;2024-02-26T01:17:37;99878.69;;;4.73;86.58
84746;BME280;74975;51.922;6.480;2024-02-26T01:20:08;99877.91;;;4.72;86.21
84746;BME280;74975;51.922;6.480;2024-02-26T01:22:39;99875.44;;;4.71;86.97
84746;BME280;74975;51.922;6.480;2024-02-26T01:25:13;99877.25;;;4.70;87.64
84746;BME280;74975;51.922;6.480;2024-02-26T01:27:45;99870.25;;;4.71;87.28
84746;BME280;74975;51.922;6.480;2024-02-26T01:30:17;99879.44;;;4.66;87.88
84746;BME280;74975;51.922;6.480;2024-02-26T01:32:55;99874.28;;;4.73;86.63
84746;BME280;74975;51.922;6.480;2024-02-26T01:35:22;99877.91;;;4.72;87.77
84746;BME280;74975;51.922;6.480;2024-02-26T01:37:54;99872.47;;;4.74;87.42
84746;BME280;74975;51.922;6.480;2024-02-26T01:40:19;99879.28;;;4.75;86.98
84746;BME280;74975;51.922;6.480;2024-02-26T01:42:52;99880.66;;;4.71;86.90
84746;BME280;74975;51.922;6.480;2024-02-26T01:45:21;99882.91;;;4.74;87.04
84746;BME280;74975;51.922;6.480;2024-02-26T01:47:56;99900.34;;;4.73;86.79
84746;BME280;74975;51.922;6.480;2024-02-26T01:50:30;99904.63;;;4.81;84.71
84746;BME280;74975;51.922;6.480;2024-02-26T01:52:55;99910.47;;;4.83;86.00
84746;BME280;74975;51.922;6.480;2024-02-26T01:55:23;99918.91;;;4.85;86.27
84746;BME280;74975;51.922;6.480;2024-02-26T01:58:01;99916.28;;;4.85;85.89
84746;BME280;74975;51.922;6.480;2024-02-26T02:00:30;99919.16;;;4.90;85.03
84746;BME280;74975;51.922;6.480;2024-02-26T02:02:56;99920.78;;;4.91;84.91
84746;BME280;74975;51.922;6.480;2024-02-26T02:05:22;99921.16;;;4.88;86.27
84746;BME280;74975;51.922;6.480;2024-02-26T02:07:53;99921.72;;;4.83;86.54
84746;BME280;74975;51.922;6.480;2024-02-26T02:10:23;99920.34;;;4.87;86.13
84746;BME280;74975;51.922;6.480;2024-02-26T02:12:54;99913.13;;;4.89;86.05
84746;BME280;74975;51.922;6.480;2024-02-26T02:15:21;99919.72;;;4.85;86.98
84746;BME280;74975;51.922;6.480;2024-02-26T02:17:53;99912.72;;;4.86;86.34
84746;BME280;74975;51.922;6.480;2024-02-26T02:20:43;99914.44;;;4.79;87.41
84746;BME280;74975;51.922;6.480;2024-02-26T02:23:12;99914.44;;;4.79;87.28
84746;BME280;74975;51.922;6.480;2024-02-26T02:25:51;99929.06;;;4.80;86.97
84746;BME280;74975;51.922;6.480;2024-02-26T02:28:27;99931.69;;;4.80;86.83
84746;BME280;74975;51.922;6.480;2024-02-26T02:30:54;99932.25;;;4.75;86.94
84746;BME280;74975;51.922;6.480;2024-02-26T02:33:23;99944.56;;;4.81;87.07
84746;BME280;74975;51.922;6.480;2024-02-26T02:35:53;99939.50;;;4.80;87.56
84746;BME280;74975;51.922;6.480;2024-02-26T02:38:24;99941.38;;;4.86;86.78
84746;BME280;74975;51.922;6.480;2024-02-26T02:41:02;99948.22;;;4.87;86.03
84746;BME280;74975;51.922;6.480;2024-02-26T02:43:37;99944.00;;;4.86;87.30
84746;BME280;74975;51.922;6.480;2024-02-26T02:46:07;99941.75;;;4.83;87.57
84746;BME280;74975;51.922;6.480;2024-02-26T02:48:45;99942.75;;;4.82;88.31
84746;BME280;74975;51.922;6.480;2024-02-26T02:51:21;99941.03;;;4.89;87.63
84746;BME280;74975;51.922;6.480;2024-02-26T02:53:54;99938.41;;;4.89;86.25
84746;BME280;74975;51.922;6.480;2024-02-26T02:56:22;99938.22;;;4.90;85.80
84746;BME280;74975;51.922;6.480;2024-02-26T02:58:53;99927.06;;;4.96;85.70
84746;BME280;74975;51.922;6.480;2024-02-26T03:01:19;99927.47;;;5.00;85.29
84746;BME280;74975;51.922;6.480;2024-02-26T03:03:52;99931.72;;;5.01;85.39
84746;BME280;74975;51.922;6.480;2024-02-26T03:06:22;99933.50;;;5.00;85.96
84746;BME280;74975;51.922;6.480;2024-02-26T03:08:49;99930.28;;;4.98;85.65
84746;BME280;74975;51.922;6.480;2024-02-26T03:11:15;99928.09;;;5.02;85.64
84746;BME280;74975;51.922;6.480;2024-02-26T03:13:49;99926.91;;;5.04;85.96
84746;BME280;74975;51.922;6.480;2024-02-26T03:16:22;99924.91;;;5.06;86.30
84746;BME280;74975;51.922;6.480;2024-02-26T03:18:55;99927.16;;;5.09;85.12
84746;BME280;74975;51.922;6.480;2024-02-26T03:21:25;99925.97;;;5.12;84.75
84746;BME280;74975;51.922;6.480;2024-02-26T03:23:54;99929.59;;;5.11;85.50
84746;BME280;74975;51.922;6.480;2024-02-26T03:26:26;99938.84;;;5.13;85.72
84746;BME280;74975;51.922;6.480;2024-02-26T03:29:00;99939.22;;;5.10;86.21
84746;BME280;74975;51.922;6.480;2024-02-26T03:31:27;99936.41;;;5.12;85.67
84746;BME280;74975;51.922;6.480;2024-02-26T03:33:58;99940.66;;;5.13;85.92
84746;BME280;74975;51.922;6.480;2024-02-26T03:36:27;99944.44;;;5.10;85.69
84746;BME280;74975;51.922;6.480;2024-02-26T03:38:56;99940.09;;;5.17;84.85
84746;BME280;74975;51.922;6.480;2024-02-26T03:41:25;99946.13;;;5.18;85.16
84746;BME280;74975;51.922;6.480;2024-02-26T03:44:01;99948.91;;;5.16;85.62
84746;BME280;74975;51.922;6.480;2024-02-26T03:46:39;99949.66;;;5.10;85.57
84746;BME280;74975;51.922;6.480;2024-02-26T03:49:09;99952.00;;;5.05;86.51
84746;BME280;74975;51.922;6.480;2024-02-26T03:51:48;99954.00;;;5.03;86.76
84746;BME280;74975;51.922;6.480;2024-02-26T03:54:16;99958.81;;;5.06;85.66
84746;BME280;74975;51.922;6.480;2024-02-26T03:56:49;99971.09;;;5.06;86.08
84746;BME280;74975;51.922;6.480;2024-02-26T03:59:19;99960.81;;;5.04;86.66
84746;BME280;74975;51.922;6.480;2024-02-26T04:01:55;99965.22;;;5.04;86.28
84746;BME280;74975;51.922;6.480;2024-02-26T04:04:20;99963.25;;;5.06;86.14
84746;BME280;74975;51.922;6.480;2024-02-26T04:06:54;99967.22;;;5.02;85.59
84746;BME280;74975;51.922;6.480;2024-02-26T04:09:26;99970.22;;;4.99;86.93
84746;BME280;74975;51.922;6.480;2024-02-26T04:11:53;99968.78;;;4.96;87.98
84746;BME280;74975;51.922;6.480;2024-02-26T04:14:29;99969.88;;;4.87;88.21
84746;BME280;74975;51.922;6.480;2024-02-26T04:17:07;99974.03;;;4.82;88.18
84746;BME280;74975;51.922;6.480;2024-02-26T04:19:32;99975.03;;;4.81;88.01
84746;BME280;74975;51.922;6.480;2024-02-26T04:22:00;99974.03;;;4.82;88.55
84746;BME280;74975;51.922;6.480;2024-02-26T04:24:32;99985.09;;;4.84;86.88
84746;BME280;74975;51.922;6.480;2024-02-26T04:27:09;99987.88;;;4.82;87.37
84746;BME280;74975;51.922;6.480;2024-02-26T04:29:45;99989.03;;;4.80;87.42
84746;BME280;74975;51.922;6.480;2024-02-26T04:32:14;99983.47;;;4.83;86.66
84746;BME280;74975;51.922;6.480;2024-02-26T04:34:45;99980.25;;;4.81;87.39
84746;BME280;74975;51.922;6.480;2024-02-26T04:37:16;99991.84;;;4.78;88.04
84746;BME280;74975;51.922;6.480;2024-02-26T04:39:51;99986.00;;;4.76;88.78
84746;BME280;74975;51.922;6.480;2024-02-26T04:42:26;99994.19;;;4.73;88.28
84746;BME280;74975;51.922;6.480;2024-02-26T04:44:58;99987.72;;;4.69;88.62
84746;BME280;74975;51.922;6.480;2024-02-26T04:47:34;100001.06;;;4.59;90.41
84746;BME280;74975;51.922;6.480;2024-02-26T04:50:03;99992.78;;;4.56;89.77
84746;BME280;74975;51.922;6.480;2024-02-26T04:52:40;99987.22;;;4.59;88.20
84746;BME280;74975;51.922;6.480;2024-02-26T04:55:10;99994.97;;;4.52;90.61
84746;BME280;74975;51.922;6.480;2024-02-26T04:57:42;99995.56;;;4.54;89.56
84746;BME280;74975;51.922;6.480;2024-02-26T05:00:13;99990.72;;;4.51;89.68
84746;BME280;74975;51.922;6.480;2024-02-26T05:02:39;100001.50;;;4.48;90.77
84746;BME280;74975;51.922;6.480;2024-02-26T05:05:12;100006.44;;;4.43;91.17
84746;BME280;74975;51.922;6.480;2024-02-26T05:07:41;100005.81;;;4.41;91.99
84746;BME280;74975;51.922;6.480;2024-02-26T05:10:08;100004.38;;;4.39;91.73
84746;BME280;74975;51.922;6.480;2024-02-26T05:12:41;100002.41;;;4.41;92.27
84746;BME280;74975;51.922;6.480;2024-02-26T05:15:17;99998.56;;;4.37;92.72
84746;BME280;74975;51.922;6.480;2024-02-26T05:17:54;100001.16;;;4.37;92.72
84746;BME280;74975;51.922;6.480;2024-02-26T05:20:23;100000.97;;;4.38;91.34
84746;BME280;74975;51.922;6.480;2024-02-26T05:22:58;99995.69;;;4.32;92.78
84746;BME280;74975;51.922;6.480;2024-02-26T05:25:37;100008.50;;;4.33;92.24
84746;BME280;74975;51.922;6.480;2024-02-26T05:28:07;100004.66;;;4.29;92.30
84746;BME280;74975;51.922;6.480;2024-02-26T05:30:38;100014.47;;;4.27;93.33
84746;BME280;74975;51.922;6.480;2024-02-26T05:33:09;100001.25;;;4.29;92.34
84746;BME280;74975;51.922;6.480;2024-02-26T05:35:39;100007.34;;;4.21;94.09
84746;BME280;74975;51.922;6.480;2024-02-26T05:38:15;100016.16;;;4.20;93.32
84746;BME280;74975;51.922;6.480;2024-02-26T05:40:53;100011.94;;;4.19;94.36
84746;BME280;74975;51.922;6.480;2024-02-26T05:43:29;100019.47;;;4.14;95.31
84746;BME280;74975;51.922;6.480;2024-02-26T05:46:09;100018.16;;;4.18;94.06
84746;BME280;74975;51.922;6.480;2024-02-26T05:48:40;100016.50;;;4.17;93.64
84746;BME280;74975;51.922;6.480;2024-02-26T05:51:13;100026.31;;;4.15;93.67
84746;BME280;74975;51.922;6.480;2024-02-26T05:53:43;100018.50;;;4.15;94.35
84746;BME280;74975;51.922;6.480;2024-02-26T05:56:20;100020.75;;;4.18;93.80
84746;BME280;74975;51.922;6.480;2024-02-26T05:58:52;100019.66;;;4.13;95.25
84746;BME280;74975;51.922;6.480;2024-02-26T06:01:18;100023.91;;;4.14;95.17
84746;BME280;74975;51.922;6.480;2024-02-26T06:03:53;100022.06;;;4.14;94.75
84746;BME280;74975;51.922;6.480;2024-02-26T06:06:31;100032.50;;;4.14;94.49
84746;BME280;74975;51.922;6.480;2024-02-26T06:09:06;100017.88;;;4.13;94.97
84746;BME280;74975;51.922;6.480;2024-02-26T06:11:34;100035.09;;;4.14;94.92
84746;BME280;74975;51.922;6.480;2024-02-26T06:14:06;100035.47;;;4.11;95.28
84746;BME280;74975;51.922;6.480;2024-02-26T06:16:32;100038.31;;;4.16;94.64
84746;BME280;74975;51.922;6.480;2024-02-26T06:19:02;100048.25;;;4.21;94.97
84746;BME280;74975;51.922;6.480;2024-02-26T06:21:36;100051.34;;;4.16;94.79
84746;BME280;74975;51.922;6.480;2024-02-26T06:24:02;100052.78;;;4.19;94.69
84746;BME280;74975;51.922;6.480;2024-02-26T06:26:30;100046.78;;;4.18;94.84
84746;BME280;74975;51.922;6.480;2024-02-26T06:29:06;100054.78;;;4.17;94.96
84746;BME280;74975;51.922;6.480;2024-02-26T06:34:44;100067.97;;;4.15;95.28
84746;BME280;74975;51.922;6.480;2024-02-26T06:37:18;100070.25;;;4.18;95.56
84746;BME280;74975;51.922;6.480;2024-02-26T06:39:56;100071.22;;;4.17;94.85
84746;BME280;74975;51.922;6.480;2024-02-26T06:42:36;100070.78;;;4.14;94.82
84746;BME280;74975;51.922;6.480;2024-02-26T06:45:09;100080.00;;;4.16;95.02
84746;BME280;74975;51.922;6.480;2024-02-26T06:47:43;100068.41;;;4.19;94.71
84746;BME280;74975;51.922;6.480;2024-02-26T06:50:21;100081.00;;;4.15;95.94
84746;BME280;74975;51.922;6.480;2024-02-26T06:52:51;100077.22;;;4.18;94.81
84746;BME280;74975;51.922;6.480;2024-02-26T06:55:25;100075.44;;;4.18;95.34
84746;BME280;74975;51.922;6.480;2024-02-26T06:57:55;100078.06;;;4.18;95.03
84746;BME280;74975;51.922;6.480;2024-02-26T07:00:30;100073.81;;;4.17;94.88
84746;BME280;74975;51.922;6.480;2024-02-26T07:03:06;100078.22;;;4.17;95.79
84746;BME280;74975;51.922;6.480;2024-02-26T07:05:41;100074.91;;;4.23;94.25
84746;BME280;74975;51.922;6.480;2024-02-26T07:08:07;100089.25;;;4.19;95.05
84746;BME280;74975;51.922;6.480;2024-02-26T07:10:41;100091.50;;;4.22;94.87
84746;BME280;74975;51.922;6.480;2024-02-26T07:13:27;100082.25;;;4.19;94.83
84746;BME280;74975;51.922;6.480;2024-02-26T07:19:25;100095.56;;;4.24;95.15
84746;BME280;74975;51.922;6.480;2024-02-26T07:22:01;100094.59;;;4.25;94.40
84746;BME280;74975;51.922;6.480;2024-02-26T07:24:47;100098.16;;;4.24;94.64
84746;BME280;74975;51.922;6.480;2024-02-26T07:27:29;100099.78;;;4.25;94.62
84746;BME280;74975;51.922;6.480;2024-02-26T07:33:29;100105.28;;;4.30;94.75
84746;BME280;74975;51.922;6.480;2024-02-26T07:36:08;100102.75;;;4.37;93.50
84746;BME280;74975;51.922;6.480;2024-02-26T07:38:56;100108.16;;;4.35;93.78
84746;BME280;74975;51.922;6.480;2024-02-26T07:41:45;100115.97;;;4.35;94.37
84746;BME280;74975;51.922;6.480;2024-02-26T07:44:27;100110.59;;;4.37;94.35
84746;BME280;74975;51.922;6.480;2024-02-26T07:47:12;100118.88;;;4.40;94.97
84746;BME280;74975;51.922;6.480;2024-02-26T07:49:48;100118.88;;;4.40;94.17
84746;BME280;74975;51.922;6.480;2024-02-26T07:52:31;100115.88;;;4.43;93.90
84746;BME280;74975;51.922;6.480;2024-02-26T07:55:26;100126.78;;;4.47;93.31
84746;BME280;74975;51.922;6.480;2024-02-26T07:58:28;100101.81;;;4.52;92.86
84746;BME280;74975;51.922;6.480;2024-02-26T08:04:19;100126.69;;;4.55;93.90
84746;BME280;74975;51.922;6.480;2024-02-26T08:07:14;100132.34;;;4.58;93.00
84746;BME280;74975;51.922;6.480;2024-02-26T08:09:57;100136.84;;;4.64;92.77
84746;BME280;74975;51.922;6.480;2024-02-26T08:12:30;100136.19;;;4.62;93.07
84746;BME280;74975;51.922;6.480;2024-02-26T08:15:00;100144.28;;;4.67;93.47
84746;BME280;74975;51.922;6.480;2024-02-26T08:17:38;100133.72;;;4.69;93.02
84746;BME280;74975;51.922;6.480;2024-02-26T08:20:22;100152.94;;;4.68;93.81
84746;BME280;74975;51.922;6.480;2024-02-26T08:22:52;100151.41;;;4.74;92.82
84746;BME280;74975;51.922;6.480;2024-02-26T08:25:20;100153.00;;;4.75;93.27
84746;BME280;74975;51.922;6.480;2024-02-26T08:27:50;100146.19;;;4.74;93.46
84746;BME280;74975;51.922;6.480;2024-02-26T08:30:21;100154.28;;;4.79;92.89
84746;BME280;74975;51.922;6.480;2024-02-26T08:32:53;100162.47;;;4.76;93.84
84746;BME280;74975;51.922;6.480;2024-02-26T08:35:21;100174.34;;;4.78;93.96
84746;BME280;74975;51.922;6.480;2024-02-26T08:37:47;100169.13;;;4.78;92.96
84746;BME280;74975;51.922;6.480;2024-02-26T08:40:34;100174.34;;;4.78;94.20
84746;BME280;74975;51.922;6.480;2024-02-26T08:43:04;100176.13;;;4.78;93.93
84746;BME280;74975;51.922;6.480;2024-02-26T08:45:36;100176.41;;;4.83;93.72
84746;BME280;74975;51.922;6.480;2024-02-26T08:48:03;100175.59;;;4.82;94.19
84746;BME280;74975;51.922;6.480;2024-02-26T08:50:33;100181.25;;;4.86;94.53
84746;BME280;74975;51.922;6.480;2024-02-26T08:53:09;100192.50;;;4.86;94.34
84746;BME280;74975;51.922;6.480;2024-02-26T08:55:49;100192.94;;;4.90;93.53
84746;BME280;74975;51.922;6.480;2024-02-26T08:58:17;100188.00;;;4.95;94.58
84746;BME280;74975;51.922;6.480;2024-02-26T09:00:50;100196.28;;;4.98;92.29
84746;BME280;74975;51.922;6.480;2024-02-26T09:03:31;100207.34;;;5.00;94.18
84746;BME280;74975;51.922;6.480;2024-02-26T09:06:03;100194.75;;;5.04;92.92
84746;BME280;74975;51.922;6.480;2024-02-26T09:08:33;100208.59;;;5.04;94.06
84746;BME280;74975;51.922;6.480;2024-02-26T09:11:04;100216.06;;;5.07;94.08
84746;BME280;74975;51.922;6.480;2024-02-26T09:13:36;100213.09;;;5.10;93.25
84746;BME280;74975;51.922;6.480;2024-02-26T09:16:23;100207.69;;;5.12;94.04
84746;BME280;74975;51.922;6.480;2024-02-26T09:19:00;100211.59;;;5.16;93.68
84746;BME280;74975;51.922;6.480;2024-02-26T09:21:35;100209.31;;;5.13;93.65
84746;BME280;74975;51.922;6.480;2024-02-26T09:24:05;100218.31;;;5.10;93.08
84746;BME280;74975;51.922;6.480;2024-02-26T09:26:53;100226.97;;;5.11;94.52
84746;BME280;74975;51.922;6.480;2024-02-26T09:29:55;100229.38;;;5.12;93.74
84746;BME280;74975;51.922;6.480;2024-02-26T09:32:31;100229.84;;;5.16;93.29
84746;BME280;74975;51.922;6.480;2024-02-26T09:35:22;100231.25;;;5.18;92.59
84746;BME280;74975;51.922;6.480;2024-02-26T09:38:00;100224.72;;;5.22;91.46
84746;BME280;74975;51.922;6.480;2024-02-26T09:40:33;100226.16;;;5.25;92.44
84746;BME280;74975;51.922;6.480;2024-02-26T09:43:14;100234.13;;;5.23;91.66
84746;BME280;74975;51.922;6.480;2024-02-26T09:45:41;100246.84;;;5.26;92.93
84746;BME280;74975;51.922;6.480;2024-02-26T09:48:23;100260.97;;;5.32;92.67
84746;BME280;74975;51.922;6.480;2024-02-26T09:50:56;100258.34;;;5.32;91.53
84746;BME280;74975;51.922;6.480;2024-02-26T09:53:22;100272.03;;;5.34;92.34
84746;BME280;74975;51.922;6.480;2024-02-26T09:55:58;100280.66;;;5.34;92.83
84746;BME280;74975;51.922;6.480;2024-02-26T09:58:29;100284.88;;;5.35;92.00
84746;BME280;74975;51.922;6.480;2024-02-26T10:01:03;100287.22;;;5.30;92.53
84746;BME280;74975;51.922;6.480;2024-02-26T10:03:59;100280.31;;;5.23;92.74
84746;BME280;74975;51.922;6.480;2024-02-26T10:06:29;100270.84;;;5.22;91.64
84746;BME280;74975;51.922;6.480;2024-02-26T10:09:00;100270.78;;;5.15;92.82
84746;BME280;74975;51.922;6.480;2024-02-26T10:11:32;100275.16;;;5.15;92.39
84746;BME280;74975;51.922;6.480;2024-02-26T10:14:14;100288.75;;;5.10;93.06
84746;BME280;74975;51.922;6.480;2024-02-26T10:16:47;100296.13;;;5.07;93.92
84746;BME280;74975;51.922;6.480;2024-02-26T10:19:25;100300.34;;;5.08;94.04
84746;BME280;74975;51.922;6.480;2024-02-26T10:21:56;100302.78;;;5.09;93.87
84746;BME280;74975;51.922;6.480;2024-02-26T10:24:25;100306.00;;;5.11;94.28
84746;BME280;74975;51.922;6.480;2024-02-26T10:26:59;100313.69;;;5.13;94.14
84746;BME280;74975;51.922;6.480;2024-02-26T10:29:34;100313.31;;;5.16;92.42
84746;BME280;74975;51.922;6.480;2024-02-26T10:32:04;100306.81;;;5.12;93.84
84746;BME280;74975;51.922;6.480;2024-02-26T10:34:35;100313.50;;;5.14;92.61
84746;BME280;74975;51.922;6.480;2024-02-26T10:37:11;100319.34;;;5.16;92.10
84746;BME280;74975;51.922;6.480;2024-02-26T10:39:39;100324.38;;;5.18;93.65
84746;BME280;74975;51.922;6.480;2024-02-26T10:42:15;100333.66;;;5.20;94.39
84746;BME280;74975;51.922;6.480;2024-02-26T10:44:52;100334.28;;;5.22;93.50
84746;BME280;74975;51.922;6.480;2024-02-26T10:47:29;100336.72;;;5.24;91.80
84746;BME280;74975;51.922;6.480;2024-02-26T10:50:04;100345.53;;;5.23;92.54
84746;BME280;74975;51.922;6.480;2024-02-26T10:52:37;100335.47;;;5.20;93.08
84746;BME280;74975;51.922;6.480;2024-02-26T10:55:17;100340.31;;;5.23;91.88
84746;BME280;74975;51.922;6.480;2024-02-26T10:57:56;100349.94;;;5.22;92.69
84746;BME280;74975;51.922;6.480;2024-02-26T11:00:29;100348.16;;;5.23;92.48
84746;BME280;74975;51.922;6.480;2024-02-26T11:03:05;100352.72;;;5.21;93.16
84746;BME280;74975;51.922;6.480;2024-02-26T11:05:41;100366.22;;;5.24;93.40
84746;BME280;74975;51.922;6.480;2024-02-26T11:08:15;100374.88;;;5.25;92.29
84746;BME280;74975;51.922;6.480;2024-02-26T11:10:45;100367.38;;;5.22;93.62
84746;BME280;74975;51.922;6.480;2024-02-26T11:13:18;100363.81;;;5.23;93.83
84746;BME280;74975;51.922;6.480;2024-02-26T11:15:46;100377.81;;;5.22;94.07
84746;BME280;74975;51.922;6.480;2024-02-26T11:18:19;100375.41;;;5.20;92.42
84746;BME280;74975;51.922;6.480;2024-02-26T11:20:54;100381.59;;;5.19;93.12
84746;BME280;74975;51.922;6.480;2024-02-26T11:23:30;100382.56;;;5.18;93.36
84746;BME280;74975;51.922;6.480;2024-02-26T11:25:59;100370.34;;;5.19;93.15
84746;BME280;74975;51.922;6.480;2024-02-26T11:28:32;100383.59;;;5.17;93.13
84746;BME280;74975;51.922;6.480;2024-02-26T11:31:05;100378.56;;;5.16;93.74
84746;BME280;74975;51.922;6.480;2024-02-26T11:33:41;100387.16;;;5.16;95.00
84746;BME280;74975;51.922;6.480;2024-02-26T11:36:12;100393.00;;;5.18;95.00
84746;BME280;74975;51.922;6.480;2024-02-26T11:38:46;100392.84;;;5.20;94.36
84746;BME280;74975;51.922;6.480;2024-02-26T11:41:29;100394.00;;;5.17;94.20
84746;BME280;74975;51.922;6.480;2024-02-26T11:44:11;100390.88;;;5.22;93.76
84746;BME280;74975;51.922;6.480;2024-02-26T11:46:46;100395.13;;;5.23;93.20
84746;BME280;74975;51.922;6.480;2024-02-26T11:52:14;100401.78;;;5.25;93.37
84746;BME280;74975;51.922;6.480;2024-02-26T11:55:04;100395.91;;;5.23;93.25
84746;BME280;74975;51.922;6.480;2024-02-26T12:00:44;100416.63;;;5.25;93.90
84746;BME280;74975;51.922;6.480;2024-02-26T12:03:29;100408.16;;;5.23;93.99
84746;BME280;74975;51.922;6.480;2024-02-26T12:06:19;100412.72;;;5.21;93.40
84746;BME280;74975;51.922;6.480;2024-02-26T12:12:59;100407.34;;;5.22;93.75
84746;BME280;74975;51.922;6.480;2024-02-26T12:15:44;100410.78;;;5.23;93.20
84746;BME280;74975;51.922;6.480;2024-02-26T12:18:23;100419.22;;;5.25;92.64
84746;BME280;74975;51.922;6.480;2024-02-26T12:21:08;100421.84;;;5.25;94.22
84746;BME280;74975;51.922;6.480;2024-02-26T12:23:54;100417.44;;;5.25;93.76
84746;BME280;74975;51.922;6.480;2024-02-26T12:26:47;100427.06;;;5.25;92.54
84746;BME280;74975;51.922;6.480;2024-02-26T12:29:21;100430.28;;;5.27;93.28
84746;BME280;74975;51.922;6.480;2024-02-26T12:32:31;100435.50;;;5.27;93.67
84746;BME280;74975;51.922;6.480;2024-02-26T12:35:31;100438.31;;;5.25;94.14
84746;BME280;74975;51.922;6.480;2024-02-26T12:38:45;100438.31;;;5.25;92.44
84746;BME280;74975;51.922;6.480;2024-02-26T12:47:59;100456.38;;;5.27;93.96
84746;BME280;74975;51.922;6.480;2024-02-26T12:50:38;100469.44;;;5.27;95.00
84746;BME280;74975;51.922;6.480;2024-02-26T12:53:23;100467.66;;;5.27;93.95
84746;BME280;74975;51.922;6.480;2024-02-26T12:56:04;100478.91;;;5.28;93.93
84746;BME280;74975;51.922;6.480;2024-02-26T12:59:04;100466.00;;;5.26;93.33
84746;BME280;74975;51.922;6.480;2024-02-26T13:01:44;100473.38;;;5.23;93.83
84746;BME280;74975;51.922;6.480;2024-02-26T13:04:16;100476.00;;;5.23;93.66
84746;BME280;74975;51.922;6.480;2024-02-26T13:10:07;100482.00;;;5.23;93.94
84746;BME280;74975;51.922;6.480;2024-02-26T13:13:07;100476.00;;;5.23;94.51
84746;BME280;74975;51.922;6.480;2024-02-26T13:18:56;100491.19;;;5.19;95.42
84746;BME280;74975;51.922;6.480;2024-02-26T13:21:38;100497.22;;;5.20;95.39
84746;BME280;74975;51.922;6.480;2024-02-26T13:24:22;100495.25;;;5.22;95.86
84746;BME280;74975;51.922;6.480;2024-02-26T13:27:09;100496.59;;;5.18;96.00
84746;BME280;74975;51.922;6.480;2024-02-26T13:29:47;100503.25;;;5.20;95.49
84746;BME280;74975;51.922;6.480;2024-02-26T13:32:28;100506.00;;;5.19;95.64
84746;BME280;74975;51.922;6.480;2024-02-26T13:35:16;100505.88;;;5.20;96.41
84746;BME280;74975;51.922;6.480;2024-02-26T13:37:54;100505.69;;;5.22;96.27
84746;BME280;74975;51.922;6.480;2024-02-26T13:40:28;100505.69;;;5.22;96.24
84746;BME280;74975;51.922;6.480;2024-02-26T13:43:06;100517.75;;;5.23;96.34
84746;BME280;74975;51.922;6.480;2024-02-26T13:45:44;100519.34;;;5.24;95.86
84746;BME280;74975;51.922;6.480;2024-02-26T13:48:18;100528.00;;;5.24;96.46
84746;BME280;74975;51.922;6.480;2024-02-26T13:50:54;100549.06;;;5.23;96.58
84746;BME280;74975;51.922;6.480;2024-02-26T13:53:32;100554.28;;;5.23;96.74
84746;BME280;74975;51.922;6.480;2024-02-26T13:56:05;100565.50;;;5.23;96.90
84746;BME280;74975;51.922;6.480;2024-02-26T13:58:55;100553.38;;;5.30;95.90
84746;BME280;74975;51.922;6.480;2024-02-26T14:01:25;100549.81;;;5.31;95.64
84746;BME280;74975;51.922;6.480;2024-02-26T14:04:01;100556.00;;;5.30;96.65
84746;BME280;74975;51.922;6.480;2024-02-26T14:06:39;100549.47;;;5.34;95.98
84746;BME280;74975;51.922;6.480;2024-02-26T14:09:11;100552.91;;;5.35;96.35
84746;BME280;74975;51.922;6.480;2024-02-26T14:11:49;100552.53;;;5.38;95.71
84746;BME280;74975;51.922;6.480;2024-02-26T14:17:18;100562.09;;;5.46;95.58
84746;BME280;74975;51.922;6.480;2024-02-26T14:20:05;100563.22;;;5.51;95.81
84746;BME280;74975;51.922;6.480;2024-02-26T14:22:39;100558.63;;;5.53;95.95
84746;BME280;74975;51.922;6.480;2024-02-26T14:25:04;100560.59;;;5.51;95.48